01:00
Airports
History
Links
Donate
Help keep this website running!
PayPal
Bitcoin
This page is community maintained. The information is intended for PC simulator navigation or reference.
Always use approved charts for navigation.
EGNT
NewcastleEdited 07-Mar-2012
Newcastle (EGNT)
Woolsington, United Kingdom
(C)
Lat/Lng:55° 2' 16.52" N / 1° 41' 23.29" W
55.037922 / -1.689803
Elevation:266'ft / 81mMSL
ID / ICAO:EGNT
Runways:1
Longest:07-25
Asphalt 2,317m / 7,603ft
Controlled:Yes
Beacon:White-Green
(Edited 2012-03-07) [ Sign in to Edit ]
METAR00:50 GMT 2017-11-18
Altimeter: 30.03
Visibility: 6.2 statute miles
Wind: 17 knots (from 260°)
Temp: 7°c / 45°f
Humidity: 81.2%

METAR: EGNT 180050Z 26017KT 9999 BKN020 07/04 Q1017

(Powered by phpweather)
Airport Radio Frequencies
ATIS: 118.37
Ground: 121.72
Tower: 119.7
Approach: 124.37
Nearby VORs <50NM
Nearby NDBs
Runway 07 / 25
Dimensions:2317.4 x 46m 7603' x 151'ft
Surface:Asphalt
Edge Lights:High intensity
Runway 07 [A]Runway 25 [B]
Heading:065°TH 245°TH
Lat:
Lng:
55° 2' 0.72"N
1° 42' 22.82"W
55° 2' 32.32"N
1° 40' 23.76"W
ALS:CalvertCalvert
User Notes and Comments
55° 2' 16.52" N / 1° 41' 23.29" W
Distance To
Airport ID:
Nearby Airports
4 Currock Hill 9.5 NM
XCUR SW 220°
(U) Peterlee 14.1 NM
EG80 ESE 120°
(U) Eshott 16.8 NM
EG34 N 356°
4 Fishburn 25.8 NM
EG41 SSE 159°
(C) Durham Tees Valley 38.0 NM
EGNV SSE 164°
4 Yearb 40.0 NM
EGX5 SE 141°
(C) Carlisle 44.9 NM
EGNC W 261°
VFR Chart
Flight Planning at SkyVector.com